Nearby METAR Reports

 

KT74 - Taylor Muni, Texas, USA
Distance from station: W 2mi, 3km
Updated: Thu, 13-Jun-2024 11:35am CDT
Partly cloudy
Partly cloudy
 Wind from SE
Wind: SE 5 mph, 7 km/h
Temperature: 86°F, 30°C
Heat Index: 93°F, 34°C
Dew Point: 73°F, 23°C
Humidity: 66%
Barometer: 29.98 inHg, 1015.2 hPa
Clouds: Partly cloudy
Visibility: 10 miles, 16 km
Cloud details: Partly cloudy 2900 ft
2024/06/13 16:35 KT74 131635Z AUTO 13004KT 10SM SCT029 30/23 A2998 RMK AO2 T03030232
KEDC - Austin Exec, Texas, USA
Distance from station: SW 16mi, 25km
Updated: Thu, 13-Jun-2024 11:35am CDT
Few Clouds
Few Clouds
 Wind from SSE
Wind: SSE 6 mph, 9 km/h
Temperature: 88°F, 31°C
Heat Index: 100°F, 38°C
Dew Point: 77°F, 25°C
Humidity: 70%
Barometer: 29.97 inHg, 1014.9 hPa
Clouds: Few Clouds
Visibility: 9 miles, 14 km
Cloud details: Few Clouds 2800 ft
2024/06/13 16:35 KEDC 131635Z AUTO 16005KT 9SM FEW028 31/25 A2997 RMK AO2
 
KGTU - Georgetown, Texas, USA
Distance from station: WNW 17mi, 28km
Updated: Thu, 13-Jun-2024 11:19am CDT
Partly cloudy
Partly cloudy
 Wind from SSE
Wind: SSE 5 mph, 7 km/h
Temperature: 84°F, 29°C
Heat Index: 89°F, 32°C
Dew Point: 72°F, 22°C
Humidity: 66%
Barometer: 30.00 inHg, 1015.9 hPa
Clouds: Partly cloudy
Visibility: 10 miles, 16 km
Cloud details: Partly cloudy 2400 ft
Partly cloudy 4100 ft
2024/06/13 16:19 KGTU 131619Z 15004KT 10SM SCT024 SCT041 29/22 A3000 RMK AO2
KATT - Austin/Mabry, Texas, USA
Distance from station: SW 28mi, 45km
Updated: Thu, 13-Jun-2024 10:51am CDT
Overcast
Overcast
 Wind from NW
Wind: NW 3 mph, 6 km/h
Temperature: 84°F, 29°C
Heat Index: 90°F, 32°C
Dew Point: 73°F, 23°C
Humidity: 70%
Barometer: 29.99 inHg, 1015.6 hPa
Clouds: Overcast
Visibility: 10 miles, 16 km
Cloud details: Partly cloudy 2600 ft
Overcast 4200 ft
2024/06/13 15:51 KATT 131551Z AUTO 31003KT 10SM SCT026 OVC042 29/23 A2999 RMK AO2 SLP140 T02890228
 
KAUS - Austin, Texas, USA
Distance from station: SSW 32mi, 51km
Updated: Thu, 13-Jun-2024 10:53am CDT
Partly cloudy
Partly cloudy
 Wind from calm
Wind: Calm
Temperature: 88°F, 31°C
Heat Index: 96°F, 36°C
Dew Point: 73°F, 23°C
Humidity: 62%
Barometer: 29.97 inHg, 1014.9 hPa
Clouds: Partly cloudy
Visibility: 10 miles, 16 km
Cloud details: Partly cloudy 2300 ft
Partly cloudy 3500 ft
2024/06/13 15:53 KAUS 131553Z 00000KT 10SM SCT023 SCT035 31/23 A2997 RMK AO2 SLP135 T03060233
KRYW - Lago Vista, Texas, USA
Distance from station: W 33mi, 54km
Updated: Thu, 13-Jun-2024 11:35am CDT
Partly cloudy
Partly cloudy
 Wind from calm
Wind: Calm
Temperature: 84°F, 29°C
Heat Index: 89°F, 32°C
Dew Point: 72°F, 22°C
Humidity: 66%
Barometer: 30.04 inHg, 1017.3 hPa
Clouds: Partly cloudy
Visibility: 10 miles, 16 km
Cloud details: Partly cloudy 2700 ft
Partly cloudy 3600 ft
2024/06/13 16:35 KRYW 131635Z AUTO 00000KT 10SM SCT027 SCT036 29/22 A3004 RMK AO2 T02860224
 
KILE - Killeen Muni, Texas, USA
Distance from station: NNW 37mi, 59km
Updated: Thu, 13-Jun-2024 10:56am CDT
Partly cloudy
Partly cloudy
 Wind from SSE
Wind: SSE 9 mph, 15 km/h
Temperature: 86°F, 30°C
Heat Index: 95°F, 35°C
Dew Point: 75°F, 24°C
Humidity: 70%
Barometer: 29.99 inHg, 1015.6 hPa
Clouds: Partly cloudy
Visibility: 10 miles, 16 km
Cloud details: Few Clouds 2300 ft
Partly cloudy 3800 ft
2024/06/13 15:56 KILE 131556Z AUTO 15008KT 10SM FEW023 SCT038 30/24 A2999 RMK AO2 SLP144 T03000239
KTPL - Temple/Miller, Texas, USA
Distance from station: N 38mi, 61km
Updated: Thu, 13-Jun-2024 11:00am CDT
Partly cloudy
Partly cloudy
 Wind from S
Wind: S 8 mph, 13 km/h
Temperature: 86°F, 30°C
Heat Index: 93°F, 34°C
Dew Point: 73°F, 23°C
Humidity: 66%
Barometer: 29.99 inHg, 1015.6 hPa
Clouds: Partly cloudy
Visibility: 10 miles, 16 km
Cloud details: Partly cloudy 2400 ft
2024/06/13 16:00 KTPL 131600Z AUTO 17007KT 130V210 10SM SCT024 30/23 A2999 RMK AO2
 
KGYB - Giddings-Lee, Texas, USA
Distance from station: SE 39mi, 62km
Updated: Thu, 13-Jun-2024 11:35am CDT
Partly cloudy
Partly cloudy
 
Temperature: 86°F, 30°C
Heat Index: 93°F, 34°C
Dew Point: 73°F, 23°C
Humidity: 66%
Barometer: 30.01 inHg, 1016.3 hPa
Clouds: Partly cloudy
Cloud details: Partly cloudy 3000 ft
Partly cloudy 4400 ft
2024/06/13 16:35 KGYB 131635Z SCT030 SCT044 30/23 A3001 RMK AO2 T02960226 PWINO
KHLR - Ft Hood/Killeen, Texas, USA
Distance from station: NNW 42mi, 67km
Updated: Thu, 13-Jun-2024 11:35am CDT
Mostly cloudy
Mostly cloudy
 Wind from S
Wind: S 7 mph, 11 km/h
Temperature: 88°F, 31°C
Heat Index: 96°F, 36°C
Dew Point: 73°F, 23°C
Humidity: 62%
Barometer: 29.98 inHg, 1015.2 hPa
Clouds: Mostly cloudy
Visibility: 10 miles, 16 km
Cloud details: Mostly cloudy 2900 ft
2024/06/13 16:35 KHLR 131635Z AUTO 18006KT 10SM BKN029 31/23 A2998 RMK AO2 SLP141